createdAt,value
2022-10-23T00:01:28.597Z,100333.75
2022-10-23T00:03:58.893Z,100342.50
2022-10-23T00:06:28.022Z,100349.72
2022-10-23T00:08:56.756Z,100347.03
2022-10-23T00:11:30.891Z,100343.25
2022-10-23T00:14:02.188Z,100350.59
2022-10-23T00:16:32.295Z,100356.47
2022-10-23T00:19:00.342Z,100352.97
2022-10-23T00:21:28.666Z,100356.50
2022-10-23T00:23:56.795Z,100367.84
2022-10-23T00:26:24.947Z,100365.53
2022-10-23T00:28:54.774Z,100370.25
2022-10-23T00:31:24.249Z,100367.41
2022-10-23T00:33:54.265Z,100368.50
2022-10-23T00:36:23.076Z,100373.94
2022-10-23T00:38:51.947Z,100373.22
2022-10-23T00:41:21.931Z,100382.25
2022-10-23T00:43:59.623Z,100386.91
2022-10-23T00:46:28.071Z,100389.41
2022-10-23T00:48:58.149Z,100386.97
2022-10-23T00:51:28.734Z,100393.66
2022-10-23T00:54:22.861Z,100393.13
2022-10-23T00:56:49.213Z,100401.03
2022-10-23T00:59:17.206Z,100399.06
2022-10-23T01:01:45.585Z,100399.94
2022-10-23T01:04:15.230Z,100398.91
2022-10-23T01:06:51.654Z,100405.44
2022-10-23T01:09:25.492Z,100410.88
2022-10-23T01:12:00.758Z,100412.06
2022-10-23T01:14:34.044Z,100415.50
2022-10-23T01:17:07.370Z,100411.69
2022-10-23T01:19:49.657Z,100406.16
2022-10-23T01:22:38.199Z,100401.63
2022-10-23T01:25:21.887Z,100411.19
2022-10-23T01:27:57.372Z,100409.75
2022-10-23T01:30:25.456Z,100410.25
2022-10-23T01:32:57.686Z,100405.53
2022-10-23T01:35:30.364Z,100408.91
2022-10-23T01:38:02.640Z,100409.84
2022-10-23T01:40:34.948Z,100414.03
2022-10-23T01:43:09.549Z,100404.28
2022-10-23T01:45:41.786Z,100425.09
2022-10-23T01:48:14.712Z,100415.13
2022-10-23T01:50:44.168Z,100423.31
2022-10-23T01:53:12.229Z,100424.28
2022-10-23T01:55:43.047Z,100418.03
2022-10-23T01:58:13.616Z,100420.97
2022-10-23T02:00:45.376Z,100407.13
2022-10-23T02:03:17.041Z,100413.63
2022-10-23T02:05:45.787Z,100420.00
2022-10-23T02:08:14.176Z,100410.59
2022-10-23T02:10:50.588Z,100415.31
2022-10-23T02:13:26.950Z,100415.63
2022-10-23T02:16:04.760Z,100420.16
2022-10-23T02:18:39.204Z,100417.13
2022-10-23T02:21:11.408Z,100411.88
2022-10-23T02:23:50.419Z,100417.53
2022-10-23T02:26:24.114Z,100410.84
2022-10-23T02:28:57.003Z,100414.69
2022-10-23T02:31:25.544Z,100414.81
2022-10-23T02:33:53.526Z,100418.56
2022-10-23T02:36:21.741Z,100418.03
2022-10-23T02:38:49.725Z,100423.47
2022-10-23T02:41:30.423Z,100428.47
2022-10-23T02:44:17.684Z,100424.91
2022-10-23T02:46:54.814Z,100447.00
2022-10-23T02:49:28.754Z,100451.78
2022-10-23T02:52:07.221Z,100449.53
2022-10-23T02:54:48.670Z,100450.38
2022-10-23T02:57:24.696Z,100448.91
2022-10-23T03:00:03.855Z,100454.28
2022-10-23T03:02:37.795Z,100450.78
2022-10-23T03:05:09.885Z,100449.22
2022-10-23T03:07:40.090Z,100456.38
2022-10-23T03:10:10.314Z,100453.91
2022-10-23T03:12:38.741Z,100458.53
2022-10-23T03:15:09.640Z,100471.78
2022-10-23T03:17:38.215Z,100468.19
2022-10-23T03:20:06.929Z,100472.63
2022-10-23T03:22:34.989Z,100469.16
2022-10-23T03:25:03.145Z,100464.75
2022-10-23T03:27:31.160Z,100464.75
2022-10-23T03:29:59.121Z,100469.31
2022-10-23T03:32:28.483Z,100477.91
2022-10-23T03:34:56.453Z,100465.56
2022-10-23T03:37:24.471Z,100470.94
2022-10-23T03:39:52.526Z,100467.56
2022-10-23T03:42:20.534Z,100466.31
2022-10-23T03:44:48.495Z,100460.13
2022-10-23T03:47:16.540Z,100466.16
2022-10-23T03:49:45.920Z,100473.66
2022-10-23T03:52:13.961Z,100468.28
2022-10-23T03:54:42.012Z,100462.16
2022-10-23T03:57:09.983Z,100464.91
2022-10-23T03:59:38.242Z,100472.31
2022-10-23T04:02:06.274Z,100469.06
2022-10-23T04:04:34.546Z,100475.53
2022-10-23T04:07:03.922Z,100485.63
2022-10-23T04:09:31.921Z,100485.19
2022-10-23T04:11:59.902Z,100480.00
2022-10-23T04:14:28.320Z,100473.06
2022-10-23T04:16:56.301Z,100473.31
2022-10-23T04:19:26.678Z,100474.34
2022-10-23T04:21:54.723Z,100469.22
2022-10-23T04:24:27.055Z,100459.94
2022-10-23T04:26:55.111Z,100468.97
2022-10-23T04:29:24.722Z,100472.63
2022-10-23T04:31:52.806Z,100465.53
2022-10-23T04:34:20.835Z,100465.66
2022-10-23T04:36:48.811Z,100465.53
2022-10-23T04:39:16.838Z,100458.56
2022-10-23T04:41:46.274Z,100455.25
2022-10-23T04:44:14.407Z,100464.94
2022-10-23T04:46:42.459Z,100475.63
2022-10-23T04:49:10.462Z,100482.59
2022-10-23T04:51:38.671Z,100475.19
2022-10-23T04:54:06.773Z,100473.59
2022-10-23T04:56:34.716Z,100489.47
2022-10-23T05:01:33.627Z,100487.00
2022-10-23T05:04:01.686Z,100482.66
2022-10-23T05:06:29.669Z,100484.31
2022-10-23T05:08:57.709Z,100488.56
2022-10-23T05:11:25.748Z,100487.38
2022-10-23T05:13:53.704Z,100495.94
2022-10-23T05:16:33.621Z,100489.13
2022-10-23T05:19:02.252Z,100487.88
2022-10-23T05:21:33.170Z,100487.69
2022-10-23T05:24:02.275Z,100489.41
2022-10-23T05:26:30.903Z,100479.69
2022-10-23T05:28:58.885Z,100480.75
2022-10-23T05:31:28.464Z,100486.88
2022-10-23T05:33:57.490Z,100486.88
2022-10-23T05:36:26.339Z,100500.50
2022-10-23T05:38:55.218Z,100500.31
2022-10-23T05:41:23.337Z,100501.84
2022-10-23T05:43:51.306Z,100515.81
2022-10-23T05:46:19.420Z,100509.69
2022-10-23T05:48:51.308Z,100506.25
2022-10-23T05:51:22.584Z,100500.91
2022-10-23T05:53:50.729Z,100489.19
2022-10-23T05:56:19.557Z,100493.97
2022-10-23T05:58:47.667Z,100491.50
2022-10-23T06:01:18.201Z,100484.72
2022-10-23T06:03:46.281Z,100488.38
2022-10-23T06:06:15.672Z,100494.09
2022-10-23T06:08:43.888Z,100493.75
2022-10-23T06:11:13.195Z,100505.69
2022-10-23T06:13:43.907Z,100504.75
2022-10-23T06:16:12.311Z,100496.66
2022-10-23T06:18:40.446Z,100504.16
2022-10-23T06:21:09.011Z,100508.94
2022-10-23T06:23:39.622Z,100512.22
2022-10-23T06:26:09.348Z,100524.72
2022-10-23T06:28:37.851Z,100533.75
2022-10-23T06:31:06.983Z,100532.47
2022-10-23T06:33:35.196Z,100537.16
2022-10-23T06:36:03.777Z,100533.06
2022-10-23T06:38:36.748Z,100534.97
2022-10-23T06:41:07.120Z,100547.00
2022-10-23T06:43:35.212Z,100551.00
2022-10-23T06:46:04.319Z,100552.84
2022-10-23T06:48:32.713Z,100569.81
2022-10-23T06:51:05.020Z,100556.44
2022-10-23T06:53:33.239Z,100555.03
2022-10-23T06:56:01.679Z,100556.75
2022-10-23T06:58:31.352Z,100554.09
2022-10-23T07:01:01.885Z,100555.69
2022-10-23T07:03:30.219Z,100550.06
2022-10-23T07:06:01.638Z,100556.38
2022-10-23T07:08:29.735Z,100563.59
2022-10-23T07:10:58.024Z,100561.03
2022-10-23T07:13:26.203Z,100555.84
2022-10-23T07:15:55.564Z,100560.28
2022-10-23T07:18:23.845Z,100556.75
2022-10-23T07:20:58.985Z,100570.94
2022-10-23T07:23:27.039Z,100564.19
2022-10-23T07:25:55.001Z,100573.19
2022-10-23T07:28:22.975Z,100560.88
2022-10-23T07:30:59.121Z,100557.50
2022-10-23T07:33:27.143Z,100562.06
2022-10-23T07:35:55.152Z,100545.56
2022-10-23T07:38:23.137Z,100553.09
2022-10-23T07:40:51.163Z,100544.38
2022-10-23T07:43:20.959Z,100548.72
2022-10-23T07:45:49.854Z,100544.59
2022-10-23T07:48:19.626Z,100547.56
2022-10-23T07:50:47.641Z,100554.97
2022-10-23T07:53:19.075Z,100550.94
2022-10-23T07:55:54.142Z,100558.38
2022-10-23T07:58:22.370Z,100551.41
2022-10-23T08:00:56.253Z,100551.59
2022-10-23T08:03:26.204Z,100541.31
2022-10-23T08:05:54.868Z,100550.34
2022-10-23T08:08:23.250Z,100544.41
2022-10-23T08:10:52.473Z,100547.50
2022-10-23T08:13:21.261Z,100534.84
2022-10-23T08:15:50.967Z,100537.84
2022-10-23T08:18:22.097Z,100546.97
2022-10-23T08:20:55.430Z,100542.41
2022-10-23T08:23:23.407Z,100541.81
2022-10-23T08:25:51.355Z,100551.88
2022-10-23T08:28:22.432Z,100544.28
2022-10-23T08:30:50.393Z,100547.09
2022-10-23T08:33:18.409Z,100540.44
2022-10-23T08:35:46.400Z,100545.97
2022-10-23T08:38:15.931Z,100544.84
2022-10-23T08:40:46.578Z,100553.38
2022-10-23T08:43:21.808Z,100556.38
2022-10-23T08:45:54.084Z,100554.34
2022-10-23T08:48:29.776Z,100554.91
2022-10-23T08:51:01.116Z,100554.44
2022-10-23T08:53:34.602Z,100540.88
2022-10-23T08:56:05.646Z,100550.00
2022-10-23T08:58:40.646Z,100548.53
2022-10-23T09:01:31.211Z,100543.91
2022-10-23T09:03:59.358Z,100546.19
2022-10-23T09:06:38.111Z,100543.09
2022-10-23T09:09:30.779Z,100547.91
2022-10-23T09:12:04.309Z,100546.41
2022-10-23T09:15:00.435Z,100543.63
2022-10-23T09:17:30.857Z,100546.47
2022-10-23T09:20:12.011Z,100549.19
2022-10-23T09:22:40.761Z,100555.66
2022-10-23T09:25:13.383Z,100554.22
2022-10-23T09:27:48.673Z,100555.06
2022-10-23T09:30:33.764Z,100561.56
2022-10-23T09:33:13.625Z,100567.88
2022-10-23T09:35:54.730Z,100573.09
2022-10-23T09:38:31.565Z,100568.00
2022-10-23T09:41:03.928Z,100560.50
2022-10-23T09:43:50.077Z,100562.31
2022-10-23T09:46:18.062Z,100559.13
2022-10-23T09:48:46.117Z,100561.72
2022-10-23T09:51:20.502Z,100563.53
2022-10-23T09:53:52.650Z,100562.59
2022-10-23T09:56:30.807Z,100559.91
2022-10-23T09:59:01.145Z,100563.44
2022-10-23T10:01:32.855Z,100555.31
2022-10-23T10:04:01.003Z,100552.63
2022-10-23T10:06:31.066Z,100546.78
2022-10-23T10:09:02.093Z,100550.16
2022-10-23T10:11:41.211Z,100545.03
2022-10-23T10:14:41.032Z,100537.16
2022-10-23T10:17:20.159Z,100538.56
2022-10-23T10:20:06.961Z,100542.25
2022-10-23T10:22:41.311Z,100539.56
2022-10-23T10:25:16.455Z,100536.22
2022-10-23T10:28:00.312Z,100519.84
2022-10-23T10:30:38.342Z,100530.38
2022-10-23T10:33:17.298Z,100522.03
2022-10-23T10:35:53.920Z,100524.53
2022-10-23T10:38:39.359Z,100526.19
2022-10-23T10:41:31.182Z,100519.44
2022-10-23T10:44:16.596Z,100513.63
2022-10-23T10:46:50.789Z,100511.53
2022-10-23T10:49:23.985Z,100515.03
2022-10-23T10:52:03.004Z,100503.19
2022-10-23T10:54:44.745Z,100504.56
2022-10-23T10:57:21.903Z,100498.09
2022-10-23T10:59:54.563Z,100504.97
2022-10-23T11:02:28.998Z,100494.50
2022-10-23T11:05:07.330Z,100487.38
2022-10-23T11:07:40.266Z,100478.81
2022-10-23T11:10:17.678Z,100476.59
2022-10-23T11:12:47.239Z,100475.88
2022-10-23T11:15:20.022Z,100474.38
2022-10-23T11:17:52.105Z,100475.44
2022-10-23T11:20:42.715Z,100480.84
2022-10-23T11:23:49.630Z,100481.88
2022-10-23T11:26:31.451Z,100482.66
2022-10-23T11:29:25.551Z,100475.97
2022-10-23T11:32:15.770Z,100479.03
2022-10-23T11:35:12.138Z,100476.78
2022-10-23T11:37:40.272Z,100469.53
2022-10-23T11:40:23.643Z,100466.31
2022-10-23T11:42:52.740Z,100464.38
2022-10-23T11:45:35.302Z,100474.22
2022-10-23T11:48:06.458Z,100477.78
2022-10-23T11:50:50.736Z,100472.09
2022-10-23T11:53:27.982Z,100467.22
2022-10-23T11:56:02.215Z,100469.44
2022-10-23T11:58:42.354Z,100458.69
2022-10-23T12:01:26.102Z,100457.91
2022-10-23T12:03:59.780Z,100447.88
2022-10-23T12:06:31.198Z,100445.75
2022-10-23T12:09:03.090Z,100451.22
2022-10-23T12:11:48.029Z,100445.16
2022-10-23T12:14:30.199Z,100433.31
2022-10-23T12:16:58.642Z,100436.72
2022-10-23T12:19:29.858Z,100437.38
2022-10-23T12:22:02.111Z,100424.59
2022-10-23T12:24:58.867Z,100425.31
2022-10-23T12:27:33.503Z,100423.56
2022-10-23T12:30:15.526Z,100420.34
2022-10-23T12:33:20.464Z,100422.44
2022-10-23T12:36:12.674Z,100418.41
2022-10-23T12:38:46.158Z,100409.91
2022-10-23T12:41:17.279Z,100407.94
2022-10-23T12:43:51.667Z,100409.91
2022-10-23T12:46:34.733Z,100412.00
2022-10-23T12:49:05.084Z,100411.44
2022-10-23T12:51:36.197Z,100404.91
2022-10-23T12:54:05.437Z,100394.78
2022-10-23T12:56:37.280Z,100397.19
2022-10-23T12:59:13.029Z,100395.38
2022-10-23T13:01:43.340Z,100393.91
2022-10-23T13:06:54.142Z,100393.53
2022-10-23T13:09:26.180Z,100392.06
2022-10-23T13:11:55.876Z,100384.75
2022-10-23T13:14:33.104Z,100380.59
2022-10-23T13:17:02.743Z,100385.88
2022-10-23T13:19:31.213Z,100381.56
2022-10-23T13:22:01.482Z,100383.31
2022-10-23T13:24:31.644Z,100382.34
2022-10-23T13:27:00.705Z,100381.72
2022-10-23T13:29:32.133Z,100378.69
2022-10-23T13:32:11.805Z,100371.66
2022-10-23T13:34:40.021Z,100365.25
2022-10-23T13:37:26.087Z,100358.47
2022-10-23T13:40:04.854Z,100367.97
2022-10-23T13:42:33.229Z,100373.41
2022-10-23T13:45:01.259Z,100368.63
2022-10-23T13:47:29.365Z,100359.66
2022-10-23T13:49:57.665Z,100359.19
2022-10-23T13:52:27.143Z,100355.81
2022-10-23T13:54:55.391Z,100351.72
2022-10-23T13:57:23.535Z,100352.19
2022-10-23T13:59:51.770Z,100353.28
2022-10-23T14:02:22.831Z,100350.53
2022-10-23T14:04:52.326Z,100350.13
2022-10-23T14:07:20.323Z,100346.53
2022-10-23T14:09:50.624Z,100334.81
2022-10-23T14:12:19.272Z,100329.09
2022-10-23T14:14:52.545Z,100335.34
2022-10-23T14:17:21.089Z,100332.69
2022-10-23T14:19:50.566Z,100329.09
2022-10-23T14:22:19.436Z,100334.41
2022-10-23T14:24:47.700Z,100327.59
2022-10-23T14:27:17.173Z,100315.69
2022-10-23T14:29:45.154Z,100321.16
2022-10-23T14:32:13.165Z,100328.50
2022-10-23T14:34:43.839Z,100326.16
2022-10-23T14:37:12.144Z,100317.44
2022-10-23T14:39:40.184Z,100315.59
2022-10-23T14:42:08.481Z,100307.72
2022-10-23T14:47:11.115Z,100293.50
2022-10-23T14:49:40.347Z,100302.97
2022-10-23T14:52:08.795Z,100297.97
2022-10-23T14:54:37.190Z,100299.50
2022-10-23T14:57:05.557Z,100295.75
2022-10-23T14:59:33.564Z,100302.25
2022-10-23T15:02:03.384Z,100293.28
2022-10-23T15:04:31.433Z,100300.25
2022-10-23T15:06:59.416Z,100296.53
2022-10-23T15:09:27.743Z,100292.91
2022-10-23T15:11:55.783Z,100281.31
2022-10-23T15:14:24.001Z,100273.97
2022-10-23T15:16:52.072Z,100259.72
2022-10-23T15:19:21.591Z,100264.81
2022-10-23T15:21:49.844Z,100257.69
2022-10-23T15:24:18.424Z,100260.34
2022-10-23T15:26:46.479Z,100255.25
2022-10-23T15:29:15.300Z,100264.59
2022-10-23T15:31:49.822Z,100273.84
2022-10-23T15:34:21.079Z,100276.75
2022-10-23T15:36:50.736Z,100279.72
2022-10-23T15:39:21.563Z,100272.06
2022-10-23T15:41:52.136Z,100271.13
2022-10-23T15:44:22.140Z,100270.16
2022-10-23T15:46:51.683Z,100270.38
2022-10-23T15:49:20.730Z,100280.91
2022-10-23T15:51:50.476Z,100282.50
2022-10-23T15:54:20.724Z,100283.25
2022-10-23T15:56:50.837Z,100278.66
2022-10-23T15:59:21.085Z,100282.28
2022-10-23T16:01:50.015Z,100275.47
2022-10-23T16:04:19.416Z,100273.88
2022-10-23T16:06:47.552Z,100276.97
2022-10-23T16:09:17.759Z,100280.59
2022-10-23T16:11:46.269Z,100282.06
2022-10-23T16:14:16.007Z,100277.69
2022-10-23T16:16:44.616Z,100276.00
2022-10-23T16:19:13.268Z,100294.59
2022-10-23T16:21:42.479Z,100292.16
2022-10-23T16:24:15.285Z,100304.50
2022-10-23T16:26:50.338Z,100308.34
2022-10-23T16:29:18.595Z,100318.44
2022-10-23T16:31:46.670Z,100326.19
2022-10-23T16:34:14.728Z,100326.19
2022-10-23T16:36:44.420Z,100315.69
2022-10-23T16:39:14.698Z,100310.56
2022-10-23T16:41:44.335Z,100305.38
2022-10-23T16:44:12.520Z,100306.34
2022-10-23T16:46:43.889Z,100308.03
2022-10-23T16:49:14.254Z,100302.81
2022-10-23T16:51:42.798Z,100305.59
2022-10-23T16:54:14.269Z,100318.88
2022-10-23T16:57:02.391Z,100333.00
2022-10-23T16:59:30.740Z,100329.50
2022-10-23T17:01:59.298Z,100332.16
2022-10-23T17:04:27.871Z,100339.41
2022-10-23T17:06:56.366Z,100344.72
2022-10-23T17:09:26.989Z,100344.72
2022-10-23T17:11:56.528Z,100341.31
2022-10-23T17:14:29.707Z,100337.03
2022-10-23T17:17:01.197Z,100339.09
2022-10-23T17:19:47.082Z,100333.88
2022-10-23T17:22:18.105Z,100330.38
2022-10-23T17:24:48.977Z,100325.06
2022-10-23T17:27:20.650Z,100321.44
2022-10-23T17:29:50.936Z,100326.00
2022-10-23T17:32:19.435Z,100331.97
2022-10-23T17:34:48.163Z,100331.53
2022-10-23T17:37:17.731Z,100321.03
2022-10-23T17:39:45.971Z,100322.84
2022-10-23T17:42:14.984Z,100319.94
2022-10-23T17:44:43.619Z,100318.50
2022-10-23T17:47:13.602Z,100300.94
2022-10-23T17:49:44.192Z,100299.13
2022-10-23T17:52:15.556Z,100293.31
2022-10-23T17:54:44.110Z,100305.63
2022-10-23T17:57:12.526Z,100295.31
2022-10-23T17:59:41.018Z,100298.28
2022-10-23T18:02:09.613Z,100300.09
2022-10-23T18:04:39.736Z,100297.66
2022-10-23T18:07:08.337Z,100300.44
2022-10-23T18:09:36.864Z,100292.50
2022-10-23T18:12:05.726Z,100300.19
2022-10-23T18:14:37.403Z,100301.91
2022-10-23T18:17:06.305Z,100302.75
2022-10-23T18:19:34.883Z,100310.19
2022-10-23T18:22:05.261Z,100293.41
2022-10-23T18:24:34.426Z,100306.75
2022-10-23T18:27:02.924Z,100305.78
2022-10-23T18:29:31.488Z,100301.56
2022-10-23T18:32:00.097Z,100303.25
2022-10-23T18:34:28.625Z,100301.56
2022-10-23T18:36:57.633Z,100299.75
2022-10-23T18:39:27.638Z,100298.69
2022-10-23T18:41:57.955Z,100300.44
2022-10-23T18:44:29.574Z,100293.41
2022-10-23T18:46:59.367Z,100295.75
2022-10-23T18:49:28.326Z,100298.50
2022-10-23T18:52:01.199Z,100295.00
2022-10-23T18:54:31.582Z,100298.69
2022-10-23T18:57:00.164Z,100302.72
2022-10-23T18:59:28.690Z,100309.72
2022-10-23T19:01:57.346Z,100308.03
2022-10-23T19:04:26.089Z,100298.38
2022-10-23T19:06:54.703Z,100306.13
2022-10-23T19:09:23.449Z,100301.03
2022-10-23T19:12:05.686Z,100294.00
2022-10-23T19:14:34.407Z,100285.50
2022-10-23T19:17:07.437Z,100277.75
2022-10-23T19:19:43.096Z,100296.66
2022-10-23T19:22:13.412Z,100295.59
2022-10-23T19:24:45.412Z,100296.56
2022-10-23T19:27:15.655Z,100306.75
2022-10-23T19:29:46.728Z,100305.91
2022-10-23T19:32:15.464Z,100299.63
2022-10-23T19:34:44.537Z,100310.38
2022-10-23T19:39:42.600Z,100302.41
2022-10-23T19:42:16.032Z,100300.72
2022-10-23T19:44:45.919Z,100301.34
2022-10-23T19:47:14.496Z,100297.81
2022-10-23T19:49:43.034Z,100309.22
2022-10-23T19:52:11.539Z,100302.94
2022-10-23T19:54:41.628Z,100302.09
2022-10-23T19:57:10.678Z,100305.91
2022-10-23T19:59:39.653Z,100306.88
2022-10-23T20:02:09.683Z,100301.66
2022-10-23T20:04:38.291Z,100312.25
2022-10-23T20:07:06.987Z,100305.25
2022-10-23T20:09:35.293Z,100316.31
2022-10-23T20:12:04.293Z,100316.72
2022-10-23T20:14:33.005Z,100316.50
2022-10-23T20:17:02.117Z,100312.16
2022-10-23T20:19:31.724Z,100312.16
2022-10-23T20:22:00.648Z,100307.81
2022-10-23T20:24:29.269Z,100309.81
2022-10-23T20:26:58.525Z,100306.31
2022-10-23T20:29:26.640Z,100315.78
2022-10-23T20:31:56.248Z,100305.16
2022-10-23T20:34:24.852Z,100288.47
2022-10-23T20:36:55.039Z,100288.47
2022-10-23T20:39:25.687Z,100286.78
2022-10-23T20:41:55.807Z,100286.78
2022-10-23T20:44:25.213Z,100281.47
2022-10-23T20:46:54.293Z,100276.38
2022-10-23T20:49:22.719Z,100273.63
2022-10-23T20:51:56.572Z,100269.16
2022-10-23T20:54:25.196Z,100255.13
2022-10-23T20:56:53.349Z,100261.94
2022-10-23T20:59:21.827Z,100265.56
2022-10-23T21:01:53.307Z,100263.63
2022-10-23T21:04:24.027Z,100269.16
2022-10-23T21:07:08.766Z,100267.44
2022-10-23T21:09:38.965Z,100269.38
2022-10-23T21:12:07.631Z,100264.91
2022-10-23T21:14:36.359Z,100266.59
2022-10-23T21:17:04.372Z,100254.28
2022-10-23T21:19:32.525Z,100251.75
2022-10-23T21:22:00.546Z,100255.34
2022-10-23T21:24:28.541Z,100259.81
2022-10-23T21:26:57.943Z,100263.22
2022-10-23T21:29:26.036Z,100272.13
2022-10-23T21:31:55.398Z,100266.84
2022-10-23T21:34:24.139Z,100265.03
2022-10-23T21:39:40.824Z,100263.31
2022-10-23T21:42:10.303Z,100269.56
2022-10-23T21:44:38.436Z,100269.78
2022-10-23T21:47:06.672Z,100272.41
2022-10-23T21:49:34.731Z,100266.28
2022-10-23T21:52:02.738Z,100264.38
2022-10-23T21:54:30.844Z,100259.91
2022-10-23T21:56:58.883Z,100259.41
2022-10-23T21:59:31.575Z,100258.00
2022-10-23T22:02:01.178Z,100250.16
2022-10-23T22:04:29.362Z,100243.69
2022-10-23T22:06:57.346Z,100246.22
2022-10-23T22:09:25.552Z,100243.22
2022-10-23T22:11:54.610Z,100256.31
2022-10-23T22:14:23.957Z,100247.50
2022-10-23T22:16:53.965Z,100261.53
2022-10-23T22:19:23.596Z,100263.31
2022-10-23T22:21:52.353Z,100263.09
2022-10-23T22:24:20.672Z,100249.19
2022-10-23T22:26:50.739Z,100253.56
2022-10-23T22:29:22.982Z,100253.56
2022-10-23T22:31:52.004Z,100263.31
2022-10-23T22:34:47.883Z,100261.41
2022-10-23T22:37:12.438Z,100266.72
2022-10-23T22:39:41.020Z,100265.94
2022-10-23T22:42:09.033Z,100263.94
2022-10-23T22:44:37.058Z,100260.56
2022-10-23T22:47:05.302Z,100258.00
2022-10-23T22:49:34.785Z,100247.81
2022-10-23T22:52:02.961Z,100252.91
2022-10-23T22:54:31.642Z,100256.41
2022-10-23T22:56:59.900Z,100251.31
2022-10-23T22:59:28.212Z,100238.34
2022-10-23T23:01:56.333Z,100235.91
2022-10-23T23:04:39.833Z,100240.47
2022-10-23T23:07:10.851Z,100245.03
2022-10-23T23:09:40.093Z,100243.66
2022-10-23T23:12:09.872Z,100246.63
2022-10-23T23:14:38.508Z,100230.69
2022-10-23T23:17:07.415Z,100229.22
2022-10-23T23:19:35.475Z,100241.50
2022-10-23T23:22:03.493Z,100241.50
2022-10-23T23:24:33.290Z,100246.81
2022-10-23T23:27:01.282Z,100245.88
2022-10-23T23:29:29.757Z,100242.47
2022-10-23T23:31:57.835Z,100245.25
2022-10-23T23:34:25.886Z,100242.66
2022-10-23T23:36:53.868Z,100227.41
2022-10-23T23:39:21.925Z,100225.50
2022-10-23T23:41:51.394Z,100222.22
2022-10-23T23:44:19.409Z,100223.06
2022-10-23T23:46:47.434Z,100233.13
2022-10-23T23:49:15.554Z,100236.81
2022-10-23T23:51:43.564Z,100235.03
2022-10-23T23:54:11.558Z,100235.34
2022-10-23T23:56:39.731Z,100229.19
2022-10-23T23:59:09.121Z,100229.38
